sensor_id;sensor_type;location;lat;lon;timestamp;temperature;humidity
75164;HTU21D;63746;45.402;37.922;2023-12-20T00:01:51;7.79;76.24
75164;HTU21D;63746;45.402;37.922;2023-12-20T00:04:17;7.79;76.23
75164;HTU21D;63746;45.402;37.922;2023-12-20T00:06:42;7.79;76.23
75164;HTU21D;63746;45.402;37.922;2023-12-20T00:09:09;7.79;76.22
75164;HTU21D;63746;45.402;37.922;2023-12-20T00:11:35;7.77;76.16
75164;HTU21D;63746;45.402;37.922;2023-12-20T00:14:01;7.76;76.23
75164;HTU21D;63746;45.402;37.922;2023-12-20T00:16:27;7.76;76.23
75164;HTU21D;63746;45.402;37.922;2023-12-20T00:18:53;7.77;76.19
75164;HTU21D;63746;45.402;37.922;2023-12-20T00:21:19;7.75;76.19
75164;HTU21D;63746;45.402;37.922;2023-12-20T00:23:45;7.73;76.15
75164;HTU21D;63746;45.402;37.922;2023-12-20T00:26:11;7.73;76.19
75164;HTU21D;63746;45.402;37.922;2023-12-20T00:28:37;7.71;76.23
75164;HTU21D;63746;45.402;37.922;2023-12-20T00:31:03;7.71;76.22
75164;HTU21D;63746;45.402;37.922;2023-12-20T00:33:30;7.70;76.23
75164;HTU21D;63746;45.402;37.922;2023-12-20T00:35:56;7.70;76.28
75164;HTU21D;63746;45.402;37.922;2023-12-20T00:38:22;7.70;76.42
75164;HTU21D;63746;45.402;37.922;2023-12-20T00:40:48;7.72;76.42
75164;HTU21D;63746;45.402;37.922;2023-12-20T00:43:15;7.72;76.34
75164;HTU21D;63746;45.402;37.922;2023-12-20T00:45:41;7.72;76.37
75164;HTU21D;63746;45.402;37.922;2023-12-20T00:48:07;7.72;76.41
75164;HTU21D;63746;45.402;37.922;2023-12-20T00:50:33;7.70;76.41
75164;HTU21D;63746;45.402;37.922;2023-12-20T00:52:59;7.72;76.49
75164;HTU21D;63746;45.402;37.922;2023-12-20T00:55:25;7.74;76.52
75164;HTU21D;63746;45.402;37.922;2023-12-20T00:57:51;7.76;76.47
75164;HTU21D;63746;45.402;37.922;2023-12-20T01:00:19;7.76;76.46
75164;HTU21D;63746;45.402;37.922;2023-12-20T01:02:45;7.75;76.42
75164;HTU21D;63746;45.402;37.922;2023-12-20T01:05:12;7.75;76.34
75164;HTU21D;63746;45.402;37.922;2023-12-20T01:07:38;7.74;76.31
75164;HTU21D;63746;45.402;37.922;2023-12-20T01:10:04;7.75;76.31
75164;HTU21D;63746;45.402;37.922;2023-12-20T01:12:30;7.75;76.31
75164;HTU21D;63746;45.402;37.922;2023-12-20T01:14:56;7.75;76.29
75164;HTU21D;63746;45.402;37.922;2023-12-20T01:17:24;7.72;76.20
75164;HTU21D;63746;45.402;37.922;2023-12-20T01:19:50;7.69;76.15
75164;HTU21D;63746;45.402;37.922;2023-12-20T01:22:16;7.69;76.13
75164;HTU21D;63746;45.402;37.922;2023-12-20T01:24:41;7.64;76.12
75164;HTU21D;63746;45.402;37.922;2023-12-20T01:27:08;7.64;76.14
75164;HTU21D;63746;45.402;37.922;2023-12-20T01:29:34;7.64;76.16
75164;HTU21D;63746;45.402;37.922;2023-12-20T01:32:00;7.61;76.27
75164;HTU21D;63746;45.402;37.922;2023-12-20T01:34:26;7.62;76.31
75164;HTU21D;63746;45.402;37.922;2023-12-20T01:36:52;7.63;76.28
75164;HTU21D;63746;45.402;37.922;2023-12-20T01:39:18;7.62;76.31
75164;HTU21D;63746;45.402;37.922;2023-12-20T01:41:44;7.62;76.33
75164;HTU21D;63746;45.402;37.922;2023-12-20T01:44:11;7.62;76.31
75164;HTU21D;63746;45.402;37.922;2023-12-20T01:46:37;7.59;76.22
75164;HTU21D;63746;45.402;37.922;2023-12-20T01:49:03;7.58;76.22
75164;HTU21D;63746;45.402;37.922;2023-12-20T01:51:29;7.57;76.29
75164;HTU21D;63746;45.402;37.922;2023-12-20T01:53:57;7.59;76.36
75164;HTU21D;63746;45.402;37.922;2023-12-20T01:56:24;7.59;76.41
75164;HTU21D;63746;45.402;37.922;2023-12-20T01:58:50;7.60;76.51
75164;HTU21D;63746;45.402;37.922;2023-12-20T02:01:16;7.62;76.58
75164;HTU21D;63746;45.402;37.922;2023-12-20T02:03:42;7.67;76.62
75164;HTU21D;63746;45.402;37.922;2023-12-20T02:06:09;7.68;76.67
75164;HTU21D;63746;45.402;37.922;2023-12-20T02:08:36;7.72;76.72
75164;HTU21D;63746;45.402;37.922;2023-12-20T02:11:02;7.75;76.79
75164;HTU21D;63746;45.402;37.922;2023-12-20T02:13:29;7.79;76.73
75164;HTU21D;63746;45.402;37.922;2023-12-20T02:15:56;7.83;76.82
75164;HTU21D;63746;45.402;37.922;2023-12-20T02:18:22;7.85;76.78
75164;HTU21D;63746;45.402;37.922;2023-12-20T02:20:48;7.90;76.81
75164;HTU21D;63746;45.402;37.922;2023-12-20T02:23:14;7.93;76.70
75164;HTU21D;63746;45.402;37.922;2023-12-20T02:25:40;7.93;76.54
75164;HTU21D;63746;45.402;37.922;2023-12-20T02:28:06;7.93;76.37
75164;HTU21D;63746;45.402;37.922;2023-12-20T02:30:32;7.93;76.29
75164;HTU21D;63746;45.402;37.922;2023-12-20T02:32:59;7.94;76.28
75164;HTU21D;63746;45.402;37.922;2023-12-20T02:35:26;7.91;76.25
75164;HTU21D;63746;45.402;37.922;2023-12-20T02:37:52;7.91;76.17
75164;HTU21D;63746;45.402;37.922;2023-12-20T02:40:18;7.88;76.19
75164;HTU21D;63746;45.402;37.922;2023-12-20T02:42:44;7.88;76.13
75164;HTU21D;63746;45.402;37.922;2023-12-20T02:45:10;7.87;76.21
75164;HTU21D;63746;45.402;37.922;2023-12-20T02:47:36;7.86;76.22
75164;HTU21D;63746;45.402;37.922;2023-12-20T02:50:02;7.86;76.32
75164;HTU21D;63746;45.402;37.922;2023-12-20T02:52:29;7.86;76.33
75164;HTU21D;63746;45.402;37.922;2023-12-20T02:54:54;7.85;76.33
75164;HTU21D;63746;45.402;37.922;2023-12-20T02:57:20;7.84;76.28
75164;HTU21D;63746;45.402;37.922;2023-12-20T02:59:46;7.85;76.30
75164;HTU21D;63746;45.402;37.922;2023-12-20T03:02:12;7.83;76.31
75164;HTU21D;63746;45.402;37.922;2023-12-20T03:04:38;7.83;76.31
75164;HTU21D;63746;45.402;37.922;2023-12-20T03:07:04;7.81;76.41
75164;HTU21D;63746;45.402;37.922;2023-12-20T03:09:30;7.82;76.44
75164;HTU21D;63746;45.402;37.922;2023-12-20T03:11:56;7.84;76.58
75164;HTU21D;63746;45.402;37.922;2023-12-20T03:14:22;7.85;76.63
75164;HTU21D;63746;45.402;37.922;2023-12-20T03:16:51;7.86;76.67
75164;HTU21D;63746;45.402;37.922;2023-12-20T03:19:17;7.87;76.81
75164;HTU21D;63746;45.402;37.922;2023-12-20T03:21:44;7.87;76.79
75164;HTU21D;63746;45.402;37.922;2023-12-20T03:24:10;7.87;76.86
75164;HTU21D;63746;45.402;37.922;2023-12-20T03:26:36;7.88;76.82
75164;HTU21D;63746;45.402;37.922;2023-12-20T03:29:02;7.91;76.85
75164;HTU21D;63746;45.402;37.922;2023-12-20T03:31:28;7.92;76.89
75164;HTU21D;63746;45.402;37.922;2023-12-20T03:33:54;7.94;76.85
75164;HTU21D;63746;45.402;37.922;2023-12-20T03:36:20;7.97;76.87
75164;HTU21D;63746;45.402;37.922;2023-12-20T03:38:46;7.99;76.76
75164;HTU21D;63746;45.402;37.922;2023-12-20T03:41:12;8.02;76.77
75164;HTU21D;63746;45.402;37.922;2023-12-20T03:43:38;8.05;76.86
75164;HTU21D;63746;45.402;37.922;2023-12-20T03:46:05;8.07;76.88
75164;HTU21D;63746;45.402;37.922;2023-12-20T03:48:31;8.11;76.90
75164;HTU21D;63746;45.402;37.922;2023-12-20T03:50:57;8.13;76.84
75164;HTU21D;63746;45.402;37.922;2023-12-20T03:53:23;8.16;76.78
75164;HTU21D;63746;45.402;37.922;2023-12-20T03:55:49;8.18;76.71
75164;HTU21D;63746;45.402;37.922;2023-12-20T03:58:15;8.20;76.68
75164;HTU21D;63746;45.402;37.922;2023-12-20T04:00:41;8.21;76.62
75164;HTU21D;63746;45.402;37.922;2023-12-20T04:03:07;8.21;76.63
75164;HTU21D;63746;45.402;37.922;2023-12-20T04:05:33;8.23;76.58
75164;HTU21D;63746;45.402;37.922;2023-12-20T04:08:01;8.23;76.53
75164;HTU21D;63746;45.402;37.922;2023-12-20T04:10:27;8.24;76.50
75164;HTU21D;63746;45.402;37.922;2023-12-20T04:12:53;8.24;76.54
75164;HTU21D;63746;45.402;37.922;2023-12-20T04:15:20;8.26;76.57
75164;HTU21D;63746;45.402;37.922;2023-12-20T04:17:46;8.28;76.54
75164;HTU21D;63746;45.402;37.922;2023-12-20T04:20:12;8.29;76.60
75164;HTU21D;63746;45.402;37.922;2023-12-20T04:22:38;8.30;76.60
75164;HTU21D;63746;45.402;37.922;2023-12-20T04:25:05;8.29;76.62
75164;HTU21D;63746;45.402;37.922;2023-12-20T04:27:31;8.31;76.60
75164;HTU21D;63746;45.402;37.922;2023-12-20T04:29:57;8.34;76.72
75164;HTU21D;63746;45.402;37.922;2023-12-20T04:32:23;8.37;76.72
75164;HTU21D;63746;45.402;37.922;2023-12-20T04:34:49;8.39;76.71
75164;HTU21D;63746;45.402;37.922;2023-12-20T04:37:15;8.41;76.70
75164;HTU21D;63746;45.402;37.922;2023-12-20T04:39:41;8.41;76.75
75164;HTU21D;63746;45.402;37.922;2023-12-20T04:42:08;8.44;76.76
75164;HTU21D;63746;45.402;37.922;2023-12-20T04:44:34;8.45;76.74
75164;HTU21D;63746;45.402;37.922;2023-12-20T04:47:00;8.46;76.78
75164;HTU21D;63746;45.402;37.922;2023-12-20T04:49:26;8.47;76.73
75164;HTU21D;63746;45.402;37.922;2023-12-20T04:51:52;8.49;76.73
75164;HTU21D;63746;45.402;37.922;2023-12-20T04:54:18;8.52;76.92
75164;HTU21D;63746;45.402;37.922;2023-12-20T04:56:44;8.55;76.95
75164;HTU21D;63746;45.402;37.922;2023-12-20T04:59:10;8.59;76.95
75164;HTU21D;63746;45.402;37.922;2023-12-20T05:01:36;8.61;76.96
75164;HTU21D;63746;45.402;37.922;2023-12-20T05:04:02;8.66;76.92
75164;HTU21D;63746;45.402;37.922;2023-12-20T05:06:28;8.68;76.89
75164;HTU21D;63746;45.402;37.922;2023-12-20T05:08:54;8.71;76.95
75164;HTU21D;63746;45.402;37.922;2023-12-20T05:11:20;8.74;76.89
75164;HTU21D;63746;45.402;37.922;2023-12-20T05:13:46;8.76;76.89
75164;HTU21D;63746;45.402;37.922;2023-12-20T05:16:12;8.81;76.98
75164;HTU21D;63746;45.402;37.922;2023-12-20T05:18:40;8.86;76.95
75164;HTU21D;63746;45.402;37.922;2023-12-20T05:21:06;8.89;76.98
75164;HTU21D;63746;45.402;37.922;2023-12-20T05:23:32;8.91;76.93
75164;HTU21D;63746;45.402;37.922;2023-12-20T05:25:58;8.96;77.21
75164;HTU21D;63746;45.402;37.922;2023-12-20T05:28:24;8.96;77.36
75164;HTU21D;63746;45.402;37.922;2023-12-20T05:30:51;0.00;77.60
75164;HTU21D;63746;45.402;37.922;2023-12-20T05:33:17;8.94;77.42
75164;HTU21D;63746;45.402;37.922;2023-12-20T05:35:43;8.95;77.40
75164;HTU21D;63746;45.402;37.922;2023-12-20T05:38:09;8.97;77.31
75164;HTU21D;63746;45.402;37.922;2023-12-20T05:40:35;9.00;77.19
75164;HTU21D;63746;45.402;37.922;2023-12-20T05:43:01;9.02;77.07
75164;HTU21D;63746;45.402;37.922;2023-12-20T05:45:28;9.03;76.96
75164;HTU21D;63746;45.402;37.922;2023-12-20T05:47:53;9.06;76.92
75164;HTU21D;63746;45.402;37.922;2023-12-20T05:50:19;9.06;76.96
75164;HTU21D;63746;45.402;37.922;2023-12-20T05:52:46;9.09;76.94
75164;HTU21D;63746;45.402;37.922;2023-12-20T05:55:12;9.10;76.86
75164;HTU21D;63746;45.402;37.922;2023-12-20T05:57:38;9.10;76.90
75164;HTU21D;63746;45.402;37.922;2023-12-20T06:00:05;9.12;76.80
75164;HTU21D;63746;45.402;37.922;2023-12-20T06:02:37;9.12;76.89
75164;HTU21D;63746;45.402;37.922;2023-12-20T06:05:07;9.16;76.87
75164;HTU21D;63746;45.402;37.922;2023-12-20T06:07:33;9.17;76.88
75164;HTU21D;63746;45.402;37.922;2023-12-20T06:09:58;9.19;76.92
75164;HTU21D;63746;45.402;37.922;2023-12-20T06:12:25;9.22;76.95
75164;HTU21D;63746;45.402;37.922;2023-12-20T06:14:53;9.24;76.94
75164;HTU21D;63746;45.402;37.922;2023-12-20T06:17:19;9.26;76.95
75164;HTU21D;63746;45.402;37.922;2023-12-20T06:19:45;9.27;76.87
75164;HTU21D;63746;45.402;37.922;2023-12-20T06:22:14;9.26;76.79
75164;HTU21D;63746;45.402;37.922;2023-12-20T06:24:40;9.26;76.78
75164;HTU21D;63746;45.402;37.922;2023-12-20T06:27:06;9.26;76.73
75164;HTU21D;63746;45.402;37.922;2023-12-20T06:29:32;9.25;76.80
75164;HTU21D;63746;45.402;37.922;2023-12-20T06:32:00;9.25;76.79
75164;HTU21D;63746;45.402;37.922;2023-12-20T06:34:26;9.25;76.79
75164;HTU21D;63746;45.402;37.922;2023-12-20T06:36:52;9.26;76.87
75164;HTU21D;63746;45.402;37.922;2023-12-20T06:39:18;9.42;76.40
75164;HTU21D;63746;45.402;37.922;2023-12-20T06:41:44;9.74;75.96
75164;HTU21D;63746;45.402;37.922;2023-12-20T06:44:10;9.82;75.60
75164;HTU21D;63746;45.402;37.922;2023-12-20T06:46:37;10.03;75.43
75164;HTU21D;63746;45.402;37.922;2023-12-20T06:49:02;10.05;75.28
75164;HTU21D;63746;45.402;37.922;2023-12-20T06:51:28;9.99;75.42
75164;HTU21D;63746;45.402;37.922;2023-12-20T06:53:56;9.92;75.63
75164;HTU21D;63746;45.402;37.922;2023-12-20T06:56:22;9.86;75.84
75164;HTU21D;63746;45.402;37.922;2023-12-20T06:58:48;9.82;76.07
75164;HTU21D;63746;45.402;37.922;2023-12-20T07:01:14;9.79;76.24
75164;HTU21D;63746;45.402;37.922;2023-12-20T07:03:40;9.76;76.40
75164;HTU21D;63746;45.402;37.922;2023-12-20T07:06:07;9.74;76.51
75164;HTU21D;63746;45.402;37.922;2023-12-20T07:08:33;9.72;76.64
75164;HTU21D;63746;45.402;37.922;2023-12-20T07:10:59;9.72;76.70
75164;HTU21D;63746;45.402;37.922;2023-12-20T07:13:26;9.72;76.70
75164;HTU21D;63746;45.402;37.922;2023-12-20T07:15:52;9.72;76.88
75164;HTU21D;63746;45.402;37.922;2023-12-20T07:18:18;9.72;76.86
75164;HTU21D;63746;45.402;37.922;2023-12-20T07:20:44;9.72;76.94
75164;HTU21D;63746;45.402;37.922;2023-12-20T07:23:10;9.72;76.94
75164;HTU21D;63746;45.402;37.922;2023-12-20T07:25:36;9.75;76.99
75164;HTU21D;63746;45.402;37.922;2023-12-20T07:28:02;9.77;77.07
75164;HTU21D;63746;45.402;37.922;2023-12-20T07:30:28;9.80;77.11
75164;HTU21D;63746;45.402;37.922;2023-12-20T07:32:54;9.83;77.11
75164;HTU21D;63746;45.402;37.922;2023-12-20T07:35:20;9.86;77.23
75164;HTU21D;63746;45.402;37.922;2023-12-20T07:37:46;9.90;77.28
75164;HTU21D;63746;45.402;37.922;2023-12-20T07:40:12;9.94;77.20
75164;HTU21D;63746;45.402;37.922;2023-12-20T07:42:38;9.99;77.25
75164;HTU21D;63746;45.402;37.922;2023-12-20T07:45:04;10.03;77.25
75164;HTU21D;63746;45.402;37.922;2023-12-20T07:47:30;10.08;77.21
75164;HTU21D;63746;45.402;37.922;2023-12-20T07:49:56;10.10;77.18
75164;HTU21D;63746;45.402;37.922;2023-12-20T07:52:23;10.16;77.21
75164;HTU21D;63746;45.402;37.922;2023-12-20T07:54:49;10.21;77.23
75164;HTU21D;63746;45.402;37.922;2023-12-20T07:57:15;10.25;77.17
75164;HTU21D;63746;45.402;37.922;2023-12-20T07:59:41;10.30;77.20
75164;HTU21D;63746;45.402;37.922;2023-12-20T08:02:07;10.37;77.21
75164;HTU21D;63746;45.402;37.922;2023-12-20T08:04:32;10.41;77.18
75164;HTU21D;63746;45.402;37.922;2023-12-20T08:06:58;10.46;77.07
75164;HTU21D;63746;45.402;37.922;2023-12-20T08:09:25;10.51;77.41
75164;HTU21D;63746;45.402;37.922;2023-12-20T08:11:51;10.54;77.25
75164;HTU21D;63746;45.402;37.922;2023-12-20T08:14:17;10.59;77.21
75164;HTU21D;63746;45.402;37.922;2023-12-20T08:16:43;10.66;77.34
75164;HTU21D;63746;45.402;37.922;2023-12-20T08:19:09;10.72;77.18
75164;HTU21D;63746;45.402;37.922;2023-12-20T08:21:35;10.83;77.30
75164;HTU21D;63746;45.402;37.922;2023-12-20T08:24:01;11.03;77.96
75164;HTU21D;63746;45.402;37.922;2023-12-20T08:26:27;11.23;78.30
75164;HTU21D;63746;45.402;37.922;2023-12-20T08:28:53;11.41;78.23
75164;HTU21D;63746;45.402;37.922;2023-12-20T08:31:19;11.57;78.18
75164;HTU21D;63746;45.402;37.922;2023-12-20T08:33:45;11.70;77.95
75164;HTU21D;63746;45.402;37.922;2023-12-20T08:36:11;11.78;77.59
75164;HTU21D;63746;45.402;37.922;2023-12-20T08:38:37;11.89;77.26
75164;HTU21D;63746;45.402;37.922;2023-12-20T08:41:03;11.97;76.89
75164;HTU21D;63746;45.402;37.922;2023-12-20T08:43:39;0.00;76.73
75164;HTU21D;63746;45.402;37.922;2023-12-20T08:46:06;12.11;76.42
75164;HTU21D;63746;45.402;37.922;2023-12-20T08:48:32;12.16;76.10
75164;HTU21D;63746;45.402;37.922;2023-12-20T08:50:58;12.22;76.00
75164;HTU21D;63746;45.402;37.922;2023-12-20T08:53:24;12.32;75.48
75164;HTU21D;63746;45.402;37.922;2023-12-20T08:55:50;12.40;75.38
75164;HTU21D;63746;45.402;37.922;2023-12-20T08:58:16;12.46;75.35
75164;HTU21D;63746;45.402;37.922;2023-12-20T09:00:44;12.53;75.14
75164;HTU21D;63746;45.402;37.922;2023-12-20T09:03:10;12.61;75.34
75164;HTU21D;63746;45.402;37.922;2023-12-20T09:05:36;12.66;75.09
75164;HTU21D;63746;45.402;37.922;2023-12-20T09:08:03;12.75;75.28
75164;HTU21D;63746;45.402;37.922;2023-12-20T09:10:29;12.81;75.03
75164;HTU21D;63746;45.402;37.922;2023-12-20T09:12:55;12.88;74.99
75164;HTU21D;63746;45.402;37.922;2023-12-20T09:15:26;12.94;74.82
75164;HTU21D;63746;45.402;37.922;2023-12-20T09:17:53;12.99;74.52
75164;HTU21D;63746;45.402;37.922;2023-12-20T09:20:19;13.03;74.70
75164;HTU21D;63746;45.402;37.922;2023-12-20T09:22:45;13.08;74.60
75164;HTU21D;63746;45.402;37.922;2023-12-20T09:25:12;13.14;74.64
75164;HTU21D;63746;45.402;37.922;2023-12-20T09:27:39;13.19;74.51
75164;HTU21D;63746;45.402;37.922;2023-12-20T09:30:05;13.24;74.80
75164;HTU21D;63746;45.402;37.922;2023-12-20T09:32:32;13.32;74.70
75164;HTU21D;63746;45.402;37.922;2023-12-20T09:34:58;13.35;74.44
75164;HTU21D;63746;45.402;37.922;2023-12-20T09:37:27;13.38;74.46
75164;HTU21D;63746;45.402;37.922;2023-12-20T09:39:54;13.41;74.33
75164;HTU21D;63746;45.402;37.922;2023-12-20T09:43:10;13.46;74.22
75164;HTU21D;63746;45.402;37.922;2023-12-20T09:45:11;13.49;74.39
75164;HTU21D;63746;45.402;37.922;2023-12-20T09:47:39;13.53;74.30
75164;HTU21D;63746;45.402;37.922;2023-12-20T09:50:06;13.55;74.30
75164;HTU21D;63746;45.402;37.922;2023-12-20T09:52:33;13.56;74.23
75164;HTU21D;63746;45.402;37.922;2023-12-20T09:55:01;13.61;74.03
75164;HTU21D;63746;45.402;37.922;2023-12-20T09:57:27;13.65;74.03
75164;HTU21D;63746;45.402;37.922;2023-12-20T09:59:53;13.67;74.02
75164;HTU21D;63746;45.402;37.922;2023-12-20T10:02:21;13.69;74.07
75164;HTU21D;63746;45.402;37.922;2023-12-20T10:04:52;13.73;74.21
75164;HTU21D;63746;45.402;37.922;2023-12-20T10:07:17;13.77;74.28
75164;HTU21D;63746;45.402;37.922;2023-12-20T10:09:44;13.79;74.06
75164;HTU21D;63746;45.402;37.922;2023-12-20T10:12:10;13.77;73.77
75164;HTU21D;63746;45.402;37.922;2023-12-20T10:14:38;13.73;73.70
75164;HTU21D;63746;45.402;37.922;2023-12-20T10:17:05;13.67;73.83
75164;HTU21D;63746;45.402;37.922;2023-12-20T10:19:32;13.62;73.93
75164;HTU21D;63746;45.402;37.922;2023-12-20T10:22:04;13.59;73.52
75164;HTU21D;63746;45.402;37.922;2023-12-20T10:24:30;13.51;72.57
75164;HTU21D;63746;45.402;37.922;2023-12-20T10:27:06;13.43;72.38
75164;HTU21D;63746;45.402;37.922;2023-12-20T10:29:33;13.32;72.74
75164;HTU21D;63746;45.402;37.922;2023-12-20T10:31:58;13.23;72.56
75164;HTU21D;63746;45.402;37.922;2023-12-20T10:34:24;13.17;73.10
75164;HTU21D;63746;45.402;37.922;2023-12-20T10:36:50;13.14;73.10
75164;HTU21D;63746;45.402;37.922;2023-12-20T10:39:17;13.10;73.06
75164;HTU21D;63746;45.402;37.922;2023-12-20T10:41:43;13.07;73.53
75164;HTU21D;63746;45.402;37.922;2023-12-20T10:44:09;13.06;73.30
75164;HTU21D;63746;45.402;37.922;2023-12-20T10:46:36;13.07;73.28
75164;HTU21D;63746;45.402;37.922;2023-12-20T10:49:02;13.07;73.57
75164;HTU21D;63746;45.402;37.922;2023-12-20T10:51:28;13.10;73.42
75164;HTU21D;63746;45.402;37.922;2023-12-20T10:53:55;13.12;73.49
75164;HTU21D;63746;45.402;37.922;2023-12-20T10:56:21;13.15;73.11
75164;HTU21D;63746;45.402;37.922;2023-12-20T10:58:49;13.17;73.37
75164;HTU21D;63746;45.402;37.922;2023-12-20T11:01:16;13.17;73.68
75164;HTU21D;63746;45.402;37.922;2023-12-20T11:03:52;13.19;73.52
75164;HTU21D;63746;45.402;37.922;2023-12-20T11:08:39;13.21;73.62
75164;HTU21D;63746;45.402;37.922;2023-12-20T11:13:31;13.20;71.90
75164;HTU21D;63746;45.402;37.922;2023-12-20T11:15:58;13.18;72.52
75164;HTU21D;63746;45.402;37.922;2023-12-20T11:18:30;0.00;72.83
75164;HTU21D;63746;45.402;37.922;2023-12-20T11:21:05;13.12;72.85
75164;HTU21D;63746;45.402;37.922;2023-12-20T11:23:34;13.12;72.96
75164;HTU21D;63746;45.402;37.922;2023-12-20T11:26:00;13.09;72.66
75164;HTU21D;63746;45.402;37.922;2023-12-20T11:28:26;13.05;72.76
75164;HTU21D;63746;45.402;37.922;2023-12-20T11:31:00;13.02;72.71
75164;HTU21D;63746;45.402;37.922;2023-12-20T11:33:27;12.96;72.74
75164;HTU21D;63746;45.402;37.922;2023-12-20T11:35:55;12.95;72.45
75164;HTU21D;63746;45.402;37.922;2023-12-20T11:38:21;12.92;72.70
75164;HTU21D;63746;45.402;37.922;2023-12-20T11:40:50;12.90;73.03
75164;HTU21D;63746;45.402;37.922;2023-12-20T11:43:32;12.87;73.11
75164;HTU21D;63746;45.402;37.922;2023-12-20T11:46:05;12.86;72.67
75164;HTU21D;63746;45.402;37.922;2023-12-20T11:48:35;12.84;72.34
75164;HTU21D;63746;45.402;37.922;2023-12-20T11:51:01;12.79;72.76
75164;HTU21D;63746;45.402;37.922;2023-12-20T11:53:28;12.77;73.12
75164;HTU21D;63746;45.402;37.922;2023-12-20T11:55:54;12.76;73.28
75164;HTU21D;63746;45.402;37.922;2023-12-20T11:58:20;12.73;73.13
75164;HTU21D;63746;45.402;37.922;2023-12-20T12:00:48;12.74;73.43
75164;HTU21D;63746;45.402;37.922;2023-12-20T12:03:14;12.73;73.54
75164;HTU21D;63746;45.402;37.922;2023-12-20T12:05:42;12.72;73.57
75164;HTU21D;63746;45.402;37.922;2023-12-20T12:08:09;12.71;73.51
75164;HTU21D;63746;45.402;37.922;2023-12-20T12:10:34;12.69;73.61
75164;HTU21D;63746;45.402;37.922;2023-12-20T12:13:00;12.65;73.60
75164;HTU21D;63746;45.402;37.922;2023-12-20T12:15:26;12.63;73.38
75164;HTU21D;63746;45.402;37.922;2023-12-20T12:17:53;12.61;73.48
75164;HTU21D;63746;45.402;37.922;2023-12-20T12:20:19;12.60;73.69
75164;HTU21D;63746;45.402;37.922;2023-12-20T12:22:45;12.59;73.96
75164;HTU21D;63746;45.402;37.922;2023-12-20T12:25:13;12.57;73.91
75164;HTU21D;63746;45.402;37.922;2023-12-20T12:27:40;12.56;74.02
75164;HTU21D;63746;45.402;37.922;2023-12-20T12:30:06;12.55;74.01
75164;HTU21D;63746;45.402;37.922;2023-12-20T12:32:32;12.55;74.24
75164;HTU21D;63746;45.402;37.922;2023-12-20T12:34:58;12.52;74.29
75164;HTU21D;63746;45.402;37.922;2023-12-20T12:37:24;12.53;74.08
75164;HTU21D;63746;45.402;37.922;2023-12-20T12:39:53;12.52;74.60
75164;HTU21D;63746;45.402;37.922;2023-12-20T12:42:20;12.51;74.85
75164;HTU21D;63746;45.402;37.922;2023-12-20T12:44:47;12.52;74.77
75164;HTU21D;63746;45.402;37.922;2023-12-20T12:47:13;12.53;74.70
75164;HTU21D;63746;45.402;37.922;2023-12-20T12:49:40;12.56;74.80
75164;HTU21D;63746;45.402;37.922;2023-12-20T12:52:06;12.58;74.91
75164;HTU21D;63746;45.402;37.922;2023-12-20T12:54:32;12.59;74.43
75164;HTU21D;63746;45.402;37.922;2023-12-20T12:56:58;12.55;74.06
75164;HTU21D;63746;45.402;37.922;2023-12-20T12:59:24;12.49;73.67
75164;HTU21D;63746;45.402;37.922;2023-12-20T13:01:49;12.43;73.92
75164;HTU21D;63746;45.402;37.922;2023-12-20T13:04:15;12.37;74.02
75164;HTU21D;63746;45.402;37.922;2023-12-20T13:06:41;12.30;73.86
75164;HTU21D;63746;45.402;37.922;2023-12-20T13:09:07;12.26;74.25
75164;HTU21D;63746;45.402;37.922;2023-12-20T13:11:35;12.21;74.31
75164;HTU21D;63746;45.402;37.922;2023-12-20T13:14:01;12.14;74.25
75164;HTU21D;63746;45.402;37.922;2023-12-20T13:16:29;12.07;74.32
75164;HTU21D;63746;45.402;37.922;2023-12-20T13:18:55;12.02;74.37
75164;HTU21D;63746;45.402;37.922;2023-12-20T13:21:21;11.96;74.25
75164;HTU21D;63746;45.402;37.922;2023-12-20T13:23:47;11.90;74.30
75164;HTU21D;63746;45.402;37.922;2023-12-20T13:26:13;11.85;74.45
75164;HTU21D;63746;45.402;37.922;2023-12-20T13:28:39;11.78;74.56
75164;HTU21D;63746;45.402;37.922;2023-12-20T13:31:04;11.75;74.60
75164;HTU21D;63746;45.402;37.922;2023-12-20T13:33:30;11.70;74.50
75164;HTU21D;63746;45.402;37.922;2023-12-20T13:35:56;11.64;74.58
75164;HTU21D;63746;45.402;37.922;2023-12-20T13:38:24;11.60;75.12
75164;HTU21D;63746;45.402;37.922;2023-12-20T13:40:50;11.57;74.91
75164;HTU21D;63746;45.402;37.922;2023-12-20T13:43:16;11.55;74.92
75164;HTU21D;63746;45.402;37.922;2023-12-20T13:45:47;11.52;75.21
75164;HTU21D;63746;45.402;37.922;2023-12-20T13:48:13;11.51;75.34
75164;HTU21D;63746;45.402;37.922;2023-12-20T13:50:39;11.51;75.34
75164;HTU21D;63746;45.402;37.922;2023-12-20T13:53:05;11.51;75.32
75164;HTU21D;63746;45.402;37.922;2023-12-20T13:55:31;11.51;75.44
75164;HTU21D;63746;45.402;37.922;2023-12-20T13:57:57;11.52;75.38
75164;HTU21D;63746;45.402;37.922;2023-12-20T14:00:23;11.53;75.32
75164;HTU21D;63746;45.402;37.922;2023-12-20T14:02:49;11.52;75.27
75164;HTU21D;63746;45.402;37.922;2023-12-20T14:05:16;11.49;75.23
75164;HTU21D;63746;45.402;37.922;2023-12-20T14:07:43;11.48;74.90
75164;HTU21D;63746;45.402;37.922;2023-12-20T14:10:13;11.43;74.86
75164;HTU21D;63746;45.402;37.922;2023-12-20T14:12:39;11.36;74.89
75164;HTU21D;63746;45.402;37.922;2023-12-20T14:15:05;11.28;74.93
75164;HTU21D;63746;45.402;37.922;2023-12-20T14:17:39;11.24;75.18
75164;HTU21D;63746;45.402;37.922;2023-12-20T14:20:06;11.17;75.36
75164;HTU21D;63746;45.402;37.922;2023-12-20T14:22:33;11.15;75.36
75164;HTU21D;63746;45.402;37.922;2023-12-20T14:24:59;11.12;75.41
75164;HTU21D;63746;45.402;37.922;2023-12-20T14:27:26;11.12;75.50
75164;HTU21D;63746;45.402;37.922;2023-12-20T14:29:54;11.12;75.42
75164;HTU21D;63746;45.402;37.922;2023-12-20T14:32:20;11.10;75.41
75164;HTU21D;63746;45.402;37.922;2023-12-20T14:34:46;11.09;75.40
75164;HTU21D;63746;45.402;37.922;2023-12-20T14:37:12;11.08;75.37
75164;HTU21D;63746;45.402;37.922;2023-12-20T14:39:38;11.03;75.28
75164;HTU21D;63746;45.402;37.922;2023-12-20T14:42:10;11.03;75.33
75164;HTU21D;63746;45.402;37.922;2023-12-20T14:44:42;11.02;75.34
75164;HTU21D;63746;45.402;37.922;2023-12-20T14:47:09;10.98;75.18
75164;HTU21D;63746;45.402;37.922;2023-12-20T14:49:35;10.96;75.13
75164;HTU21D;63746;45.402;37.922;2023-12-20T14:52:04;10.90;75.12
75164;HTU21D;63746;45.402;37.922;2023-12-20T14:54:30;10.88;75.15
75164;HTU21D;63746;45.402;37.922;2023-12-20T14:56:57;10.85;75.21
75164;HTU21D;63746;45.402;37.922;2023-12-20T14:59:23;10.81;75.22
75164;HTU21D;63746;45.402;37.922;2023-12-20T15:01:49;10.80;75.21
75164;HTU21D;63746;45.402;37.922;2023-12-20T15:04:16;10.74;75.19
75164;HTU21D;63746;45.402;37.922;2023-12-20T15:06:42;10.72;75.12
75164;HTU21D;63746;45.402;37.922;2023-12-20T15:09:11;10.68;75.10
75164;HTU21D;63746;45.402;37.922;2023-12-20T15:11:37;10.63;75.12